createdAt,value
2023-02-24T00:00:32.493Z,95980.47
2023-02-24T00:03:05.942Z,95976.59
2023-02-24T00:05:39.168Z,95975.16
2023-02-24T00:08:08.563Z,95982.72
2023-02-24T00:10:37.519Z,95974.16
2023-02-24T00:13:05.500Z,95979.91
2023-02-24T00:15:33.560Z,95980.50
2023-02-24T00:18:06.989Z,95974.41
2023-02-24T00:20:36.161Z,95975.19
2023-02-24T00:23:03.982Z,95971.09
2023-02-24T00:25:33.082Z,95967.88
2023-02-24T00:28:01.799Z,95963.56
2023-02-24T00:30:31.573Z,95953.22
2023-02-24T00:33:01.370Z,95959.28
2023-02-24T00:35:30.453Z,95956.06
2023-02-24T00:37:58.448Z,95956.66
2023-02-24T00:40:26.600Z,95960.53
2023-02-24T00:42:55.976Z,95951.81
2023-02-24T00:45:23.808Z,95950.97
2023-02-24T00:47:51.538Z,95947.94
2023-02-24T00:50:19.598Z,95956.06
2023-02-24T00:52:49.122Z,95953.16
2023-02-24T00:55:16.993Z,95955.88
2023-02-24T00:57:45.256Z,95951.34
2023-02-24T01:00:16.935Z,95954.84
2023-02-24T01:02:46.399Z,95956.28
2023-02-24T01:05:15.067Z,95951.03
2023-02-24T01:07:43.193Z,95947.75
2023-02-24T01:10:12.999Z,95942.06
2023-02-24T01:12:49.446Z,95942.50
2023-02-24T01:15:21.236Z,95941.66
2023-02-24T01:17:49.352Z,95920.09
2023-02-24T01:20:18.533Z,95937.34
2023-02-24T01:22:51.224Z,95923.16
2023-02-24T01:25:20.487Z,95932.31
2023-02-24T01:27:48.470Z,95929.50
2023-02-24T01:30:18.540Z,95911.47
2023-02-24T01:32:48.007Z,95929.13
2023-02-24T01:35:16.514Z,95918.56
2023-02-24T01:37:45.606Z,95922.06
2023-02-24T01:40:20.755Z,95927.53
2023-02-24T01:42:49.593Z,95906.81
2023-02-24T01:45:25.926Z,95926.06
2023-02-24T01:47:58.736Z,95917.34
2023-02-24T01:50:27.874Z,95893.78
2023-02-24T01:52:59.968Z,95914.75
2023-02-24T01:55:31.813Z,95921.47
2023-02-24T01:58:01.939Z,95918.19
2023-02-24T02:00:38.290Z,95918.00
2023-02-24T02:03:15.415Z,95914.50
2023-02-24T02:05:45.311Z,95907.59
2023-02-24T02:08:14.860Z,95915.34
2023-02-24T02:10:45.229Z,95916.13
2023-02-24T02:13:15.098Z,95910.84
2023-02-24T02:15:56.831Z,95915.09
2023-02-24T02:18:36.623Z,95899.00
2023-02-24T02:21:49.562Z,95912.88
2023-02-24T02:24:29.660Z,95904.72
2023-02-24T02:27:24.373Z,95907.00
2023-02-24T02:30:28.350Z,95911.69
2023-02-24T02:33:31.015Z,95900.31
2023-02-24T02:36:07.809Z,95908.03
2023-02-24T02:38:43.122Z,95909.91
2023-02-24T02:41:18.595Z,95921.69
2023-02-24T02:43:52.640Z,95912.53
2023-02-24T02:46:34.649Z,95920.09
2023-02-24T02:49:07.881Z,95920.69
2023-02-24T02:51:41.868Z,95921.91
2023-02-24T02:54:17.442Z,95916.63
2023-02-24T02:56:50.715Z,95915.81
2023-02-24T02:59:25.156Z,95927.38
2023-02-24T03:02:01.166Z,95923.75
2023-02-24T03:04:30.806Z,95921.28
2023-02-24T03:07:03.469Z,95913.34
2023-02-24T03:09:36.808Z,95917.78
2023-02-24T03:12:09.744Z,95910.44
2023-02-24T03:14:40.934Z,95910.25
2023-02-24T03:17:14.934Z,95905.34
2023-02-24T03:19:44.731Z,95906.34
2023-02-24T03:22:17.802Z,95904.72
2023-02-24T03:24:46.846Z,95888.47
2023-02-24T03:27:21.101Z,95892.94
2023-02-24T03:29:54.105Z,95894.16
2023-02-24T03:32:33.305Z,95892.53
2023-02-24T03:35:06.821Z,95892.94
2023-02-24T03:37:37.085Z,95883.22
2023-02-24T03:40:11.616Z,95891.34
2023-02-24T03:42:42.190Z,95886.88
2023-02-24T03:45:10.841Z,95886.25
2023-02-24T03:47:39.087Z,95888.69
2023-02-24T03:50:13.734Z,95859.81
2023-02-24T03:52:49.199Z,95888.50
2023-02-24T03:55:25.985Z,95881.78
2023-02-24T03:58:06.441Z,95887.25
2023-02-24T04:00:41.032Z,95875.91
2023-02-24T04:03:23.668Z,95882.81
2023-02-24T04:06:00.659Z,95881.59
2023-02-24T04:08:37.767Z,95871.25
2023-02-24T04:11:13.259Z,95869.19
2023-02-24T04:13:46.135Z,95875.31
2023-02-24T04:16:18.463Z,95877.13
2023-02-24T04:18:51.324Z,95870.25
2023-02-24T04:21:22.344Z,95884.28
2023-02-24T04:23:52.095Z,95886.53
2023-02-24T04:26:21.622Z,95873.53
2023-02-24T04:28:49.643Z,95886.97
2023-02-24T04:31:21.250Z,95884.09
2023-02-24T04:33:50.359Z,95885.69
2023-02-24T04:36:23.151Z,95850.97
2023-02-24T04:38:54.196Z,95879.38
2023-02-24T04:41:23.325Z,95873.47
2023-02-24T04:43:51.857Z,95871.00
2023-02-24T04:46:20.447Z,95864.88
2023-02-24T04:48:48.510Z,95861.22
2023-02-24T04:51:16.386Z,95867.13
2023-02-24T04:53:44.399Z,95866.34
2023-02-24T04:56:13.988Z,95863.06
2023-02-24T04:58:43.869Z,95849.00
2023-02-24T05:01:12.766Z,95853.88
2023-02-24T05:03:42.903Z,95850.41
2023-02-24T05:06:17.271Z,95852.44
2023-02-24T05:08:45.917Z,95848.22
2023-02-24T05:11:17.086Z,95851.47
2023-02-24T05:13:47.206Z,95848.22
2023-02-24T05:16:20.449Z,95841.53
2023-02-24T05:18:48.371Z,95851.06
2023-02-24T05:21:35.462Z,95834.66
2023-02-24T05:24:06.833Z,95833.38
2023-02-24T05:26:38.213Z,95829.50
2023-02-24T05:29:07.286Z,95843.31
2023-02-24T05:31:35.586Z,95827.25
2023-02-24T05:34:05.628Z,95821.75
2023-02-24T05:36:37.588Z,95815.84
2023-02-24T05:39:08.009Z,95820.34
2023-02-24T05:41:41.876Z,95820.16
2023-02-24T05:44:13.522Z,95823.00
2023-02-24T05:46:44.712Z,95816.88
2023-02-24T05:49:14.651Z,95819.75
2023-02-24T05:51:52.261Z,95819.56
2023-02-24T05:54:20.740Z,95814.47
2023-02-24T05:56:50.297Z,95809.19
2023-02-24T05:59:21.682Z,95808.53
2023-02-24T06:01:53.091Z,95812.84
2023-02-24T06:04:39.547Z,95814.22
2023-02-24T06:07:13.740Z,95823.00
2023-02-24T06:09:45.307Z,95807.78
2023-02-24T06:12:15.821Z,95803.69
2023-02-24T06:14:45.056Z,95804.09
2023-02-24T06:17:15.156Z,95800.41
2023-02-24T06:19:43.476Z,95810.38
2023-02-24T06:22:14.562Z,95807.78
2023-02-24T06:24:44.471Z,95805.69
2023-02-24T06:27:18.014Z,95807.34
2023-02-24T06:29:49.997Z,95805.63
2023-02-24T06:32:18.077Z,95804.84
2023-02-24T06:34:46.446Z,95805.06
2023-02-24T06:37:15.752Z,95790.84
2023-02-24T06:39:44.229Z,95797.31
2023-02-24T06:42:13.644Z,95804.78
2023-02-24T06:44:42.620Z,95796.44
2023-02-24T06:47:13.449Z,95794.69
2023-02-24T06:49:41.554Z,95794.44
2023-02-24T06:52:10.998Z,95782.88
2023-02-24T06:54:39.530Z,95781.59
2023-02-24T06:57:09.767Z,95781.00
2023-02-24T06:59:37.712Z,95795.56
2023-02-24T07:02:08.179Z,95803.31
2023-02-24T07:04:43.966Z,95795.16
2023-02-24T07:07:14.613Z,95796.22
2023-02-24T07:09:45.509Z,95795.84
2023-02-24T07:12:13.613Z,95786.00
2023-02-24T07:14:41.912Z,95772.47
2023-02-24T07:17:10.352Z,95775.38
2023-02-24T07:19:39.807Z,95766.22
2023-02-24T07:22:09.605Z,95773.75
2023-02-24T07:24:40.845Z,95781.03
2023-02-24T07:27:11.934Z,95785.75
2023-02-24T07:29:40.771Z,95777.41
2023-02-24T07:32:10.171Z,95778.97
2023-02-24T07:34:40.890Z,95774.88
2023-02-24T07:37:10.352Z,95758.41
2023-02-24T07:39:39.889Z,95755.34
2023-02-24T07:42:09.653Z,95749.75
2023-02-24T07:44:39.007Z,95750.63
2023-02-24T07:47:08.369Z,95739.94
2023-02-24T07:49:36.644Z,95744.34
2023-02-24T07:52:08.203Z,95742.03
2023-02-24T07:54:36.771Z,95742.94
2023-02-24T07:57:04.733Z,95729.44
2023-02-24T07:59:34.689Z,95738.34
2023-02-24T08:02:07.633Z,95732.81
2023-02-24T08:04:36.458Z,95720.91
2023-02-24T08:07:13.086Z,95717.19
2023-02-24T08:09:58.881Z,95717.38
2023-02-24T08:12:28.468Z,95714.53
2023-02-24T08:15:00.223Z,95704.59
2023-02-24T08:17:28.811Z,95696.97
2023-02-24T08:20:21.963Z,95707.94
2023-02-24T08:22:53.380Z,95709.50
2023-02-24T08:25:23.577Z,95707.66
2023-02-24T08:28:12.561Z,95699.00
2023-02-24T08:30:45.623Z,95685.94
2023-02-24T08:33:17.437Z,95702.94
2023-02-24T08:35:45.816Z,95691.69
2023-02-24T08:38:19.384Z,95694.13
2023-02-24T08:40:54.885Z,95682.19
2023-02-24T08:43:33.965Z,95673.66
2023-02-24T08:46:12.643Z,95684.97
2023-02-24T08:48:42.536Z,95664.81
2023-02-24T08:51:15.141Z,95685.84
2023-02-24T08:53:46.747Z,95681.22
2023-02-24T08:56:24.139Z,95678.28
2023-02-24T08:58:57.109Z,95683.03
2023-02-24T09:01:34.401Z,95676.69
2023-02-24T09:04:04.860Z,95681.72
2023-02-24T09:06:39.758Z,95679.28
2023-02-24T09:09:18.452Z,95671.13
2023-02-24T09:11:47.212Z,95674.44
2023-02-24T09:14:26.582Z,95653.47
2023-02-24T09:17:07.091Z,95654.81
2023-02-24T09:19:58.220Z,95661.38
2023-02-24T09:22:32.571Z,95657.38
2023-02-24T09:25:19.169Z,95652.81
2023-02-24T09:27:52.205Z,95660.19
2023-02-24T09:30:36.853Z,95652.78
2023-02-24T09:33:18.876Z,95657.63
2023-02-24T09:35:52.511Z,95653.34
2023-02-24T09:38:42.555Z,95651.72
2023-02-24T09:41:31.647Z,95647.16
2023-02-24T09:44:03.867Z,95641.78
2023-02-24T09:46:39.344Z,95637.41
2023-02-24T09:49:17.306Z,95630.66
2023-02-24T09:51:45.919Z,95627.25
2023-02-24T09:54:17.464Z,95624.81
2023-02-24T09:57:08.112Z,95620.44
2023-02-24T09:59:51.061Z,95610.66
2023-02-24T10:02:31.235Z,95594.94
2023-02-24T10:05:07.459Z,95601.88
2023-02-24T10:07:39.465Z,95599.00
2023-02-24T10:10:20.513Z,95601.31
2023-02-24T10:12:58.380Z,95606.59
2023-02-24T10:15:47.684Z,95594.78
2023-02-24T10:18:28.141Z,95591.31
2023-02-24T10:21:02.917Z,95533.31
2023-02-24T10:23:45.147Z,95580.03
2023-02-24T10:26:30.514Z,95581.13
2023-02-24T10:29:09.155Z,95577.63
2023-02-24T10:31:48.423Z,95564.72
2023-02-24T10:34:25.272Z,95570.63
2023-02-24T10:36:53.549Z,95565.19
2023-02-24T10:39:25.592Z,95567.84
2023-02-24T10:41:57.565Z,95555.28
2023-02-24T10:44:27.608Z,95552.06
2023-02-24T10:47:11.460Z,95551.88
2023-02-24T10:49:56.842Z,95540.16
2023-02-24T10:52:50.740Z,95549.84
2023-02-24T10:55:39.163Z,95543.91
2023-02-24T10:58:15.901Z,95532.31
2023-02-24T11:01:11.881Z,95532.78
2023-02-24T11:03:46.474Z,95536.50
2023-02-24T11:06:30.734Z,95523.13
2023-02-24T11:09:19.202Z,95523.00
2023-02-24T11:12:06.189Z,95532.66
2023-02-24T11:14:56.101Z,95524.13
2023-02-24T11:17:27.866Z,95509.91
2023-02-24T11:20:00.239Z,95502.81
2023-02-24T11:22:32.286Z,95499.72
2023-02-24T11:25:06.727Z,95503.47
2023-02-24T11:27:35.141Z,95499.44
2023-02-24T11:30:17.050Z,95485.47
2023-02-24T11:32:54.864Z,95489.72
2023-02-24T11:35:27.860Z,95482.97
2023-02-24T11:38:09.688Z,95482.91
2023-02-24T11:40:41.180Z,95463.59
2023-02-24T11:43:16.560Z,95458.59
2023-02-24T11:45:48.362Z,95461.16
2023-02-24T11:48:21.463Z,95442.63
2023-02-24T11:50:56.377Z,95440.22
2023-02-24T11:53:32.145Z,95429.16
2023-02-24T11:56:04.444Z,95426.19
2023-02-24T11:58:41.907Z,95411.81
2023-02-24T12:01:15.986Z,95415.00
2023-02-24T12:03:53.826Z,95413.28
2023-02-24T12:06:28.931Z,95406.78
2023-02-24T12:09:02.157Z,95405.97
2023-02-24T12:11:40.094Z,95401.50
2023-02-24T12:14:21.376Z,95395.81
2023-02-24T12:16:56.349Z,95387.28
2023-02-24T12:19:33.213Z,95379.66
2023-02-24T12:22:05.893Z,95366.34
2023-02-24T12:24:35.835Z,95358.50
2023-02-24T12:27:13.947Z,95374.84
2023-02-24T12:29:55.432Z,95363.34
2023-02-24T12:32:41.472Z,95357.94
2023-02-24T12:35:19.982Z,95358.72
2023-02-24T12:37:59.877Z,95339.44
2023-02-24T12:40:42.144Z,95347.16
2023-02-24T12:43:23.930Z,95348.16
2023-02-24T12:45:54.715Z,95340.69
2023-02-24T12:48:52.732Z,95342.00
2023-02-24T12:51:30.195Z,95333.19
2023-02-24T12:54:04.788Z,95327.63
2023-02-24T12:56:42.622Z,95313.34
2023-02-24T12:59:15.781Z,95306.53
2023-02-24T13:01:52.485Z,95317.56
2023-02-24T13:04:37.613Z,95312.63
2023-02-24T13:07:17.630Z,95312.16
2023-02-24T13:09:52.514Z,95297.97
2023-02-24T13:12:28.735Z,95313.84
2023-02-24T13:14:57.354Z,95295.63
2023-02-24T13:17:27.008Z,95296.03
2023-02-24T13:19:56.386Z,95297.78
2023-02-24T13:22:29.606Z,95282.88
2023-02-24T13:25:00.898Z,95286.78
2023-02-24T13:27:30.252Z,95283.13
2023-02-24T13:30:01.227Z,95276.41
2023-02-24T13:32:32.843Z,95264.31
2023-02-24T13:35:03.031Z,95269.50
2023-02-24T13:37:35.822Z,95269.88
2023-02-24T13:40:22.569Z,95264.13
2023-02-24T13:42:59.096Z,95261.50
2023-02-24T13:45:29.175Z,95263.31
2023-02-24T13:48:22.280Z,95253.31
2023-02-24T13:51:09.763Z,95237.69
2023-02-24T13:53:58.874Z,95254.31
2023-02-24T13:56:38.202Z,95251.47
2023-02-24T13:59:19.481Z,95250.09
2023-02-24T14:01:50.846Z,95248.50
2023-02-24T14:04:22.026Z,95238.69
2023-02-24T14:06:54.814Z,95233.84
2023-02-24T14:09:28.176Z,95235.06
2023-02-24T14:12:00.429Z,95234.47
2023-02-24T14:14:29.162Z,95227.59
2023-02-24T14:16:57.064Z,95219.84
2023-02-24T14:19:27.077Z,95216.63
2023-02-24T14:21:57.179Z,95226.19
2023-02-24T14:24:28.699Z,95227.03
2023-02-24T14:26:59.362Z,95230.03
2023-02-24T14:29:31.976Z,95222.81
2023-02-24T14:32:00.644Z,95218.78
2023-02-24T14:34:32.274Z,95213.66
2023-02-24T14:37:03.488Z,95223.19
2023-02-24T14:39:34.186Z,95218.09
2023-02-24T14:42:12.921Z,95216.09
2023-02-24T14:44:43.283Z,95214.22
2023-02-24T14:47:14.385Z,95207.50
2023-02-24T14:49:44.283Z,95206.16
2023-02-24T14:52:20.029Z,95213.88
2023-02-24T14:54:54.202Z,95207.63
2023-02-24T14:57:25.674Z,95200.91
2023-02-24T14:59:56.549Z,95200.19
2023-02-24T15:02:33.121Z,95192.75
2023-02-24T15:05:01.546Z,95198.13
2023-02-24T15:07:33.190Z,95194.25
2023-02-24T15:10:04.185Z,95189.91
2023-02-24T15:12:35.485Z,95203.09
2023-02-24T15:15:07.468Z,95187.09
2023-02-24T15:17:41.428Z,95191.16
2023-02-24T15:20:31.138Z,95185.31
2023-02-24T15:22:59.690Z,95182.41
2023-02-24T15:25:41.988Z,95187.84
2023-02-24T15:28:24.494Z,95178.59
2023-02-24T15:31:01.959Z,95191.25
2023-02-24T15:33:35.450Z,95186.81
2023-02-24T15:36:09.761Z,95178.78
2023-02-24T15:38:39.486Z,95170.63
2023-02-24T15:41:11.105Z,95176.78
2023-02-24T15:43:46.206Z,95183.81
2023-02-24T15:46:24.568Z,95193.38
2023-02-24T15:48:54.626Z,95205.53
2023-02-24T15:51:31.986Z,95205.34
2023-02-24T15:54:01.272Z,95202.91
2023-02-24T15:56:33.430Z,95184.63
2023-02-24T15:59:02.703Z,95203.16
2023-02-24T16:01:31.411Z,95211.84
2023-02-24T16:03:59.273Z,95215.75
2023-02-24T16:06:29.432Z,95215.88
2023-02-24T16:08:58.395Z,95201.69
2023-02-24T16:11:30.172Z,95206.00
2023-02-24T16:14:01.194Z,95210.66
2023-02-24T16:16:29.531Z,95213.53
2023-02-24T16:18:57.828Z,95200.25
2023-02-24T16:21:25.714Z,95204.00
2023-02-24T16:23:53.470Z,95198.09
2023-02-24T16:26:24.347Z,95205.31
2023-02-24T16:28:55.203Z,95196.00
2023-02-24T16:31:25.262Z,95206.69
2023-02-24T16:33:55.690Z,95202.69
2023-02-24T16:36:25.336Z,95198.41
2023-02-24T16:38:53.604Z,95205.09
2023-02-24T16:41:21.503Z,95208.34
2023-02-24T16:43:49.272Z,95208.59
2023-02-24T16:46:20.043Z,95204.03
2023-02-24T16:48:52.891Z,95203.00
2023-02-24T16:51:21.278Z,95193.06
2023-02-24T16:53:49.029Z,95197.34
2023-02-24T16:56:16.889Z,95183.69
2023-02-24T16:58:45.104Z,95183.19
2023-02-24T17:01:20.080Z,95181.59
2023-02-24T17:03:52.305Z,95173.81
2023-02-24T17:06:22.089Z,95183.19
2023-02-24T17:08:50.538Z,95182.66
2023-02-24T17:11:21.267Z,95176.47
2023-02-24T17:13:49.236Z,95184.25
2023-02-24T17:16:17.063Z,95176.78
2023-02-24T17:18:44.812Z,95177.81
2023-02-24T17:21:16.986Z,95176.78
2023-02-24T17:23:44.620Z,95179.41
2023-02-24T17:26:15.326Z,95174.63
2023-02-24T17:28:43.430Z,95171.94
2023-02-24T17:31:11.303Z,95182.38
2023-02-24T17:33:39.096Z,95178.91
2023-02-24T17:36:07.264Z,95189.59
2023-02-24T17:38:36.530Z,95188.56
2023-02-24T17:41:04.357Z,95194.44
2023-02-24T17:43:32.205Z,95189.88
2023-02-24T17:46:05.849Z,95191.19
2023-02-24T17:48:34.910Z,95182.06
2023-02-24T17:51:03.061Z,95189.03
2023-02-24T17:53:31.267Z,95184.72
2023-02-24T17:56:05.157Z,95182.63
2023-02-24T17:58:33.780Z,95177.53
2023-02-24T18:01:02.943Z,95185.56
2023-02-24T18:03:32.039Z,95174.06
2023-02-24T18:06:00.835Z,95187.41
2023-02-24T18:08:30.478Z,95181.75
2023-02-24T18:10:59.887Z,95173.47
2023-02-24T18:13:30.657Z,95182.06
2023-02-24T18:15:59.177Z,95179.84
2023-02-24T18:18:30.302Z,95188.91
2023-02-24T18:21:02.705Z,95185.16
2023-02-24T18:23:30.754Z,95196.16
2023-02-24T18:26:01.936Z,95191.66
2023-02-24T18:28:31.610Z,95191.13
2023-02-24T18:31:00.581Z,95186.88
2023-02-24T18:33:29.373Z,95189.56
2023-02-24T18:36:00.983Z,95189.03
2023-02-24T18:38:28.908Z,95196.47
2023-02-24T18:41:01.372Z,95190.09
2023-02-24T18:43:29.822Z,95184.16
2023-02-24T18:46:00.611Z,95183.63
2023-02-24T18:48:29.673Z,95182.81
2023-02-24T18:50:58.807Z,95183.59
2023-02-24T18:53:28.975Z,95184.66
2023-02-24T18:56:01.318Z,95177.41
2023-02-24T18:58:29.934Z,95186.16
2023-02-24T19:00:59.190Z,95172.75
2023-02-24T19:03:27.621Z,95179.09
2023-02-24T19:05:55.338Z,95187.31
2023-02-24T19:08:23.443Z,95193.47
2023-02-24T19:10:51.271Z,95189.59
2023-02-24T19:13:18.981Z,95196.00
2023-02-24T19:15:48.240Z,95197.03
2023-02-24T19:18:17.902Z,95202.63
2023-02-24T19:20:45.684Z,95200.16
2023-02-24T19:23:13.863Z,95197.53
2023-02-24T19:25:41.716Z,95200.44
2023-02-24T19:28:09.691Z,95199.91
2023-02-24T19:30:40.063Z,95198.56
2023-02-24T19:33:09.638Z,95200.75
2023-02-24T19:35:42.632Z,95192.75
2023-02-24T19:38:15.112Z,95201.00
2023-02-24T19:40:43.560Z,95191.06
2023-02-24T19:43:12.112Z,95203.31
2023-02-24T19:45:42.439Z,95178.75
2023-02-24T19:48:10.672Z,95211.34
2023-02-24T19:50:41.904Z,95213.22
2023-02-24T19:53:09.939Z,95219.84
2023-02-24T19:55:38.122Z,95225.66
2023-02-24T19:58:05.961Z,95225.94
2023-02-24T20:00:33.741Z,95225.69
2023-02-24T20:03:01.502Z,95224.38
2023-02-24T20:05:29.259Z,95214.72
2023-02-24T20:07:59.286Z,95205.41
2023-02-24T20:10:27.071Z,95202.72
2023-02-24T20:12:56.147Z,95204.22
2023-02-24T20:15:23.892Z,95205.84
2023-02-24T20:17:51.646Z,95197.28
2023-02-24T20:20:20.010Z,95187.69
2023-02-24T20:22:48.236Z,95204.53
2023-02-24T20:25:18.056Z,95184.41
2023-02-24T20:27:46.313Z,95187.31
2023-02-24T20:30:14.869Z,95193.53
2023-02-24T20:32:42.890Z,95189.25
2023-02-24T20:35:11.323Z,95173.78
2023-02-24T20:37:39.182Z,95171.44
2023-02-24T20:40:08.924Z,95190.84
2023-02-24T20:42:38.041Z,95190.56
2023-02-24T20:45:08.035Z,95187.03
2023-02-24T20:47:35.847Z,95191.81
2023-02-24T20:50:05.620Z,95196.09
2023-02-24T20:52:34.316Z,95205.66
2023-02-24T20:55:02.409Z,95201.97
2023-02-24T20:57:30.466Z,95199.88
2023-02-24T21:00:04.313Z,95195.66
2023-02-24T21:02:32.126Z,95189.66
2023-02-24T21:04:59.988Z,95205.69
2023-02-24T21:07:27.932Z,95205.75
2023-02-24T21:09:55.799Z,95211.06
2023-02-24T21:12:23.732Z,95190.44
2023-02-24T21:14:51.500Z,95191.50
2023-02-24T21:17:20.778Z,95203.59
2023-02-24T21:19:49.697Z,95207.78
2023-02-24T21:22:17.781Z,95204.34
2023-02-24T21:24:45.576Z,95218.25
2023-02-24T21:27:13.386Z,95196.88
2023-02-24T21:29:41.128Z,95210.44
2023-02-24T21:32:09.039Z,95204.06
2023-02-24T21:34:38.344Z,95198.63
2023-02-24T21:37:07.650Z,95209.94
2023-02-24T21:39:35.430Z,95214.41
2023-02-24T21:42:03.268Z,95214.41
2023-02-24T21:44:31.105Z,95228.63
2023-02-24T21:46:58.984Z,95230.81
2023-02-24T21:49:27.218Z,95233.94
2023-02-24T21:51:56.791Z,95233.41
2023-02-24T21:54:24.499Z,95227.06
2023-02-24T21:56:52.210Z,95231.56
2023-02-24T21:59:20.216Z,95228.63
2023-02-24T22:01:48.050Z,95225.28
2023-02-24T22:04:19.353Z,95229.34
2023-02-24T22:06:47.159Z,95230.38
2023-02-24T22:09:19.443Z,95234.19
2023-02-24T22:11:49.079Z,95229.06
2023-02-24T22:14:17.481Z,95240.34
2023-02-24T22:16:45.742Z,95245.75
2023-02-24T22:19:13.734Z,95241.75
2023-02-24T22:21:42.388Z,95235.13
2023-02-24T22:24:13.498Z,95227.66
2023-02-24T22:26:43.476Z,95236.53
2023-02-24T22:29:12.031Z,95250.00
2023-02-24T22:31:44.065Z,95247.56
2023-02-24T22:34:13.095Z,95247.28
2023-02-24T22:36:40.946Z,95250.44
2023-02-24T22:39:09.583Z,95233.41
2023-02-24T22:41:38.151Z,95246.31
2023-02-24T22:44:07.569Z,95227.31
2023-02-24T22:46:38.177Z,95236.69
2023-02-24T22:49:06.920Z,95237.16
2023-02-24T22:51:35.262Z,95233.63
2023-02-24T22:54:03.178Z,95244.91
2023-02-24T22:56:31.988Z,95261.69
2023-02-24T22:59:00.509Z,95260.59
2023-02-24T23:01:32.223Z,95260.19
2023-02-24T23:04:01.372Z,95258.19
2023-02-24T23:06:30.517Z,95253.59
2023-02-24T23:09:00.460Z,95258.72
2023-02-24T23:11:30.509Z,95258.91
2023-02-24T23:14:00.114Z,95254.66
2023-02-24T23:16:32.331Z,95255.41
2023-02-24T23:19:04.234Z,95260.81
2023-02-24T23:21:35.480Z,95251.44
2023-02-24T23:24:04.133Z,95241.84
2023-02-24T23:26:33.038Z,95263.50
2023-02-24T23:29:01.321Z,95257.50
2023-02-24T23:31:30.944Z,95259.34
2023-02-24T23:33:59.164Z,95269.44
2023-02-24T23:36:27.179Z,95258.75
2023-02-24T23:38:55.044Z,95265.38
2023-02-24T23:41:23.304Z,95257.13
2023-02-24T23:43:51.022Z,95266.69
2023-02-24T23:46:18.863Z,95261.84
2023-02-24T23:48:52.340Z,95277.22
2023-02-24T23:51:20.959Z,95273.94
2023-02-24T23:53:49.237Z,95272.28
2023-02-24T23:56:19.285Z,95265.81
2023-02-24T23:58:51.677Z,95285.03
